TTH weather

Thumrait Air Base
Thumrait, Dhofar Governorate, Oman

Public forecast

Using degrees Celsius for public forecast. Weather courtesy of forecast.io.

METAR (pilot weather report)

Report is more than 6 hours old.

Retrieved 2013/04/27 08:50 UTC (6 years ago):

OOTH 270850Z 15012KT 120V200 9999 SCT025 33/17 Q1015 RH40 RMK01

TAF (pilot weather forecast)

Forecast is more than 12 hours old.

Retrieved 2014/10/12 06:03 UTC (5 years ago):

TAF TAF OOTH 120505Z 1206/1306 19006KT CAVOK TEMPO 1209/1215 05010KT SCT030